DNKN/KAN METAR and TAF weather

Enter ICAO airport designator
Station Type Date Time Source
DNKN METAR 2020/10/20 17:00 UTC NOAA

DNKN 201700Z 04003KT CAVOK 28/22 Q1013 NOSIG


Station Type Date Time Source
DNKN Decoded METAR 2020/10/20 17:00 UTC NOAA

Kano, Nigeria (DNKN) 12-03N 008-32E 481M
Oct 20, 2020 - 01:00 PM EDT / 2020.10.20 1700 UTC
Wind: from the NE (040 degrees) at 3 MPH (3 KT):0
Visibility: greater than 7 mile(s):0
Temperature: 82 F (28 C)
Dew Point: 71 F (22 C)
Relative Humidity: 69%
Pressure (altimeter): 29.91 in. Hg (1013 hPa)
ob: DNKN 201700Z 04003KT CAVOK 28/22 Q1013 NOSIG
cycle: 17

Station Type Date Time Source
DNKN TAF 2020/10/20 18:21 UTC NOAA

TAF DNKN 201655Z 2018/2124 22008KT CAVOK
TEMPO 2020/2101 VRB02KT

Example: see airport list